createdAt,value
2019-04-30T00:00:43.100Z,102551.45
2019-04-30T00:03:19.525Z,102553.53
2019-04-30T00:05:49.427Z,102555.44
2019-04-30T00:08:19.483Z,102550.66
2019-04-30T00:10:48.974Z,102548.55
2019-04-30T00:13:21.004Z,102547.56
2019-04-30T00:15:52.696Z,102543.34
2019-04-30T00:18:20.823Z,102539.83
2019-04-30T00:20:50.865Z,102538.91
2019-04-30T00:23:41.589Z,102542.07
2019-04-30T00:26:10.541Z,102541.85
2019-04-30T00:28:44.383Z,102540.54
2019-04-30T00:31:11.079Z,102541.91
2019-04-30T00:33:40.483Z,102543.16
2019-04-30T00:36:09.917Z,102539.03
2019-04-30T00:38:39.363Z,102538.08
2019-04-30T00:44:19.894Z,102532.69
2019-04-30T00:46:48.257Z,102533.61
2019-04-30T00:49:22.856Z,102532.98
2019-04-30T00:51:49.808Z,102533.75
2019-04-30T00:54:22.373Z,102535.81
2019-04-30T00:56:51.366Z,102534.91
2019-04-30T00:59:20.739Z,102534.94
2019-04-30T01:01:56.340Z,102532.41
2019-04-30T01:04:30.096Z,102530.06
2019-04-30T01:07:00.288Z,102527.63
2019-04-30T01:09:30.816Z,102523.67
2019-04-30T01:12:00.068Z,102522.36
2019-04-30T01:14:31.964Z,102519.93
2019-04-30T01:17:03.690Z,102522.20
2019-04-30T01:19:32.910Z,102521.86
2019-04-30T01:22:02.344Z,102512.28
2019-04-30T01:24:31.842Z,102516.80
2019-04-30T01:27:06.752Z,102518.42
2019-04-30T01:29:38.053Z,102512.86
2019-04-30T01:32:03.811Z,102506.15
2019-04-30T01:34:33.596Z,102508.77
2019-04-30T01:37:02.896Z,102503.61
2019-04-30T01:39:32.279Z,102507.96
2019-04-30T01:42:02.862Z,102504.04
2019-04-30T01:44:33.081Z,102508.11
2019-04-30T01:47:02.349Z,102509.13
2019-04-30T01:49:41.729Z,102508.73
2019-04-30T01:52:02.687Z,102499.16
2019-04-30T01:54:31.851Z,102498.49
2019-04-30T01:57:05.507Z,102500.72
2019-04-30T01:59:36.409Z,102489.10
2019-04-30T02:02:06.068Z,102487.42
2019-04-30T02:04:35.501Z,102485.80
2019-04-30T02:07:04.674Z,102491.92
2019-04-30T02:09:34.005Z,102491.82
2019-04-30T02:12:03.201Z,102489.84
2019-04-30T02:14:32.471Z,102491.55
2019-04-30T02:17:01.696Z,102492.27
2019-04-30T02:19:31.245Z,102491.68
2019-04-30T02:22:00.523Z,102486.73
2019-04-30T02:24:30.083Z,102488.39
2019-04-30T02:26:59.502Z,102486.72
2019-04-30T02:29:29.740Z,102490.80
2019-04-30T02:32:00.566Z,102485.41
2019-04-30T02:34:31.646Z,102492.77
2019-04-30T02:37:09.816Z,102490.94
2019-04-30T02:39:40.267Z,102488.19
2019-04-30T02:42:09.624Z,102492.72
2019-04-30T02:44:41.062Z,102495.46
2019-04-30T02:47:10.708Z,102490.87
2019-04-30T02:49:40.391Z,102496.92
2019-04-30T02:52:09.601Z,102490.84
2019-04-30T02:54:39.633Z,102486.33
2019-04-30T02:57:11.660Z,102485.42
2019-04-30T02:59:59.943Z,102487.76
2019-04-30T03:02:29.992Z,102489.23
2019-04-30T03:05:00.248Z,102492.19
2019-04-30T03:07:29.758Z,102493.98
2019-04-30T03:09:59.793Z,102486.48
2019-04-30T03:12:33.191Z,102484.02
2019-04-30T03:15:00.560Z,102480.94
2019-04-30T03:17:34.148Z,102476.30
2019-04-30T03:20:05.299Z,102474.78
2019-04-30T03:22:34.557Z,102484.77
2019-04-30T03:25:05.110Z,102480.94
2019-04-30T03:27:33.710Z,102479.56
2019-04-30T03:30:03.418Z,102483.15
2019-04-30T03:32:36.750Z,102478.80
2019-04-30T03:35:03.829Z,102475.92
2019-04-30T03:37:33.080Z,102475.17
2019-04-30T03:40:02.485Z,102474.05
2019-04-30T03:42:31.711Z,102473.39
2019-04-30T03:45:00.962Z,102471.75
2019-04-30T03:47:30.316Z,102474.33
2019-04-30T03:50:00.097Z,102477.41
2019-04-30T03:52:29.486Z,102478.02
2019-04-30T03:54:59.611Z,102476.44
2019-04-30T03:57:30.421Z,102477.98
2019-04-30T03:59:59.689Z,102479.20
2019-04-30T04:02:33.094Z,102481.67
2019-04-30T04:05:12.778Z,102483.89
2019-04-30T04:07:43.774Z,102485.09
2019-04-30T04:10:20.600Z,102482.52
2019-04-30T04:12:50.041Z,102490.52
2019-04-30T04:15:19.929Z,102487.34
2019-04-30T04:17:50.406Z,102489.20
2019-04-30T04:20:20.327Z,102488.06
2019-04-30T04:22:49.994Z,102499.38
2019-04-30T04:25:20.487Z,102492.88
2019-04-30T04:27:50.833Z,102498.42
2019-04-30T04:30:21.987Z,102500.11
2019-04-30T04:32:51.459Z,102493.89
2019-04-30T04:35:20.712Z,102495.78
2019-04-30T04:37:49.984Z,102492.46
2019-04-30T04:40:20.974Z,102497.26
2019-04-30T04:42:50.164Z,102497.87
2019-04-30T04:45:19.953Z,102497.30
2019-04-30T04:47:50.358Z,102500.14
2019-04-30T04:50:20.095Z,102500.94
2019-04-30T04:52:49.834Z,102499.35
2019-04-30T04:55:22.217Z,102500.31
2019-04-30T04:58:01.828Z,102503.55
2019-04-30T05:01:11.772Z,102506.23
2019-04-30T05:14:52.821Z,102507.20
2019-04-30T05:17:32.189Z,102506.00
2019-04-30T05:20:19.898Z,102502.46
2019-04-30T05:25:32.540Z,102504.44
2019-04-30T05:30:51.270Z,102503.44
2019-04-30T05:33:21.074Z,102505.15
2019-04-30T05:35:50.383Z,102504.27
2019-04-30T05:38:20.022Z,102504.77
2019-04-30T05:40:49.644Z,102507.25
2019-04-30T05:43:19.332Z,102509.65
2019-04-30T05:45:51.314Z,102511.09
2019-04-30T05:48:25.521Z,102512.58
2019-04-30T05:50:56.275Z,102506.42
2019-04-30T05:53:28.653Z,102511.46
2019-04-30T05:55:59.311Z,102508.78
2019-04-30T05:58:30.036Z,102509.83
2019-04-30T06:01:00.010Z,102507.41
2019-04-30T06:03:32.838Z,102504.13
2019-04-30T06:06:00.534Z,102505.11
2019-04-30T06:08:34.612Z,102506.17
2019-04-30T06:11:11.529Z,102505.48
2019-04-30T06:13:45.362Z,102507.93
2019-04-30T06:16:18.707Z,102505.97
2019-04-30T06:18:48.556Z,102509.45
2019-04-30T06:21:21.293Z,102506.86
2019-04-30T06:23:49.274Z,102507.64
2019-04-30T06:26:20.683Z,102498.52
2019-04-30T06:28:52.203Z,102500.15
2019-04-30T06:31:32.390Z,102510.43
2019-04-30T06:33:58.617Z,102507.85
2019-04-30T06:36:31.888Z,102506.84
2019-04-30T06:47:41.908Z,102512.20
2019-04-30T06:53:13.871Z,102512.02
2019-04-30T07:13:18.851Z,102518.58
2019-04-30T07:16:11.006Z,102520.28
2019-04-30T07:18:40.575Z,102522.37
2019-04-30T07:23:49.744Z,102517.38
2019-04-30T07:26:40.404Z,102521.14
2019-04-30T07:29:11.016Z,102519.02
2019-04-30T07:31:40.485Z,102523.52
2019-04-30T07:37:14.594Z,102524.45
2019-04-30T07:39:34.917Z,102524.28
2019-04-30T07:42:09.308Z,102522.11
2019-04-30T07:44:39.777Z,102527.73
2019-04-30T07:47:10.107Z,102534.79
2019-04-30T07:49:49.908Z,102538.32
2019-04-30T07:52:12.074Z,102534.14
2019-04-30T07:55:09.811Z,102536.95
2019-04-30T07:57:43.024Z,102542.53
2019-04-30T08:08:34.262Z,102550.95
2019-04-30T08:16:45.763Z,102551.87
2019-04-30T08:47:03.706Z,102579.58
2019-04-30T08:49:33.361Z,102584.16
2019-04-30T08:52:10.913Z,102581.67
2019-04-30T08:54:49.751Z,102586.82
2019-04-30T09:36:49.004Z,102576.05
2019-04-30T09:39:19.919Z,102578.80
2019-04-30T09:41:49.654Z,102585.80
2019-04-30T09:44:25.685Z,102578.61
2019-04-30T09:46:56.328Z,102575.63
2019-04-30T09:52:19.347Z,102576.55
2019-04-30T09:54:49.961Z,102578.24
2019-04-30T09:57:21.915Z,102574.66
2019-04-30T09:59:57.089Z,102574.28
2019-04-30T10:02:32.261Z,102565.86
2019-04-30T10:05:07.113Z,102570.20
2019-04-30T10:52:42.729Z,102533.60
2019-04-30T10:55:12.054Z,102528.30
2019-04-30T10:57:41.257Z,102520.84
2019-04-30T11:00:15.238Z,102526.15
2019-04-30T11:02:44.556Z,102517.78
2019-04-30T11:05:13.778Z,102513.05
2019-04-30T11:16:15.667Z,102507.95
2019-04-30T11:18:45.452Z,102500.91
2019-04-30T11:21:15.207Z,102504.05
2019-04-30T11:23:44.800Z,102496.48
2019-04-30T11:26:15.078Z,102504.92
2019-04-30T11:28:44.311Z,102498.08
2019-04-30T11:31:24.675Z,102491.09
2019-04-30T11:34:02.226Z,102498.08
2019-04-30T11:36:33.334Z,102495.24
2019-04-30T11:39:03.647Z,102495.91
2019-04-30T11:41:33.401Z,102494.52
2019-04-30T11:44:03.037Z,102489.84
2019-04-30T11:46:59.872Z,102494.84
2019-04-30T11:49:31.099Z,102490.44
2019-04-30T11:52:00.746Z,102490.03
2019-04-30T11:54:30.280Z,102479.67
2019-04-30T11:56:59.713Z,102482.25
2019-04-30T11:59:47.631Z,102479.78
2019-04-30T12:02:19.071Z,102476.05
2019-04-30T12:07:28.169Z,102472.58
2019-04-30T12:10:14.205Z,102468.30
2019-04-30T12:12:43.480Z,102467.47
2019-04-30T12:42:25.415Z,102444.97
2019-04-30T12:43:48.577Z,102444.47
2019-04-30T13:04:49.078Z,102428.33
2019-04-30T13:07:20.617Z,102421.03
2019-04-30T13:20:43.733Z,102414.19
2019-04-30T14:27:13.896Z,102370.95
2019-04-30T14:29:43.233Z,102374.23
2019-04-30T14:32:12.438Z,102368.21
2019-04-30T14:34:41.633Z,102362.05
2019-04-30T14:37:10.988Z,102365.30
2019-04-30T14:39:40.528Z,102362.03
2019-04-30T14:42:11.799Z,102367.40
2019-04-30T14:44:43.818Z,102361.25
2019-04-30T14:47:15.898Z,102363.93
2019-04-30T14:49:59.724Z,102363.64
2019-04-30T14:52:21.489Z,102367.41
2019-04-30T14:54:58.783Z,102359.37
2019-04-30T14:57:45.843Z,102359.60
2019-04-30T15:00:17.183Z,102360.09
2019-04-30T15:02:52.060Z,102353.51
2019-04-30T15:05:22.207Z,102351.45
2019-04-30T15:07:51.397Z,102362.16
2019-04-30T15:10:20.648Z,102351.45
2019-04-30T15:12:49.928Z,102351.80
2019-04-30T15:15:19.290Z,102354.50
2019-04-30T15:17:49.308Z,102349.00
2019-04-30T15:20:19.815Z,102348.13
2019-04-30T15:22:53.569Z,102345.27
2019-04-30T15:25:22.887Z,102345.20
2019-04-30T15:27:52.196Z,102342.45
2019-04-30T15:30:22.012Z,102342.39
2019-04-30T15:32:52.978Z,102340.39
2019-04-30T15:35:22.257Z,102341.07
2019-04-30T15:37:53.180Z,102340.20
2019-04-30T15:40:22.568Z,102340.19
2019-04-30T15:42:53.730Z,102345.25
2019-04-30T15:45:23.152Z,102334.77
2019-04-30T15:47:52.341Z,102334.37
2019-04-30T15:50:21.547Z,102334.09
2019-04-30T15:52:50.844Z,102331.55
2019-04-30T15:55:20.149Z,102338.67
2019-04-30T15:57:59.855Z,102330.19
2019-04-30T16:00:31.283Z,102332.80
2019-04-30T16:03:14.003Z,102325.57
2019-04-30T16:05:45.004Z,102329.53
2019-04-30T16:08:33.442Z,102328.63
2019-04-30T16:11:10.361Z,102325.76
2019-04-30T16:13:45.808Z,102326.03
2019-04-30T16:16:15.194Z,102324.73
2019-04-30T16:18:46.090Z,102319.41
2019-04-30T16:21:15.312Z,102318.95
2019-04-30T16:23:44.680Z,102315.30
2019-04-30T16:26:14.188Z,102311.36
2019-04-30T16:28:43.525Z,102316.48
2019-04-30T16:31:12.819Z,102311.86
2019-04-30T16:33:42.144Z,102314.49
2019-04-30T16:36:11.349Z,102313.98
2019-04-30T16:38:40.638Z,102317.08
2019-04-30T16:41:10.145Z,102310.41
2019-04-30T16:43:39.368Z,102308.08
2019-04-30T16:46:17.102Z,102308.16
2019-04-30T16:48:55.562Z,102302.03
2019-04-30T16:51:30.648Z,102293.68
2019-04-30T16:54:08.648Z,102302.16
2019-04-30T16:56:40.189Z,102304.25
2019-04-30T16:59:14.109Z,102299.78
2019-04-30T17:01:56.642Z,102296.50
2019-04-30T17:04:31.952Z,102298.22
2019-04-30T17:07:03.018Z,102303.80
2019-04-30T17:09:54.592Z,102294.80
2019-04-30T17:12:26.034Z,102296.09
2019-04-30T17:15:14.730Z,102296.33
2019-04-30T17:17:49.609Z,102291.61
2019-04-30T17:20:20.860Z,102293.53
2019-04-30T17:22:50.528Z,102290.20
2019-04-30T17:25:24.479Z,102294.98
2019-04-30T17:27:55.219Z,102294.91
2019-04-30T17:30:26.197Z,102296.06
2019-04-30T17:35:35.656Z,102289.59
2019-04-30T17:38:04.908Z,102288.84
2019-04-30T17:40:34.095Z,102293.48
2019-04-30T17:43:03.400Z,102289.27
2019-04-30T17:45:35.677Z,102289.37
2019-04-30T17:48:09.849Z,102287.73
2019-04-30T17:50:39.712Z,102291.77
2019-04-30T17:53:09.173Z,102292.98
2019-04-30T17:55:44.721Z,102290.86
2019-04-30T17:58:22.306Z,102290.60
2019-04-30T18:00:53.309Z,102287.85
2019-04-30T18:03:25.812Z,102293.61
2019-04-30T18:05:59.170Z,102291.53
2019-04-30T18:08:28.565Z,102298.94
2019-04-30T18:10:57.841Z,102294.45
2019-04-30T18:13:30.103Z,102287.57
2019-04-30T18:16:00.459Z,102293.85
2019-04-30T18:18:35.724Z,102292.91
2019-04-30T18:21:21.621Z,102297.55
2019-04-30T18:23:52.715Z,102297.59
2019-04-30T18:26:30.074Z,102304.19
2019-04-30T18:28:59.508Z,102295.99
2019-04-30T18:31:29.821Z,102305.26
2019-04-30T18:33:59.413Z,102302.56
2019-04-30T18:36:29.432Z,102304.26
2019-04-30T18:38:59.048Z,102301.64
2019-04-30T18:41:38.259Z,102302.84
2019-04-30T18:44:09.465Z,102302.03
2019-04-30T18:46:39.115Z,102304.98
2019-04-30T18:49:11.298Z,102308.78
2019-04-30T18:51:42.627Z,102313.59
2019-04-30T18:54:11.797Z,102309.73
2019-04-30T18:56:41.423Z,102312.25
2019-04-30T18:59:32.630Z,102306.21
2019-04-30T19:02:01.357Z,102305.20
2019-04-30T19:04:40.894Z,102311.56
2019-04-30T19:07:31.178Z,102307.37
2019-04-30T19:10:02.043Z,102301.70
2019-04-30T19:12:42.608Z,102304.75
2019-04-30T19:15:15.904Z,102308.64
2019-04-30T19:17:57.245Z,102302.94
2019-04-30T19:20:28.722Z,102305.81
2019-04-30T19:22:58.164Z,102306.23
2019-04-30T19:25:28.900Z,102308.55
2019-04-30T19:28:09.620Z,102314.92
2019-04-30T19:30:32.371Z,102306.95
2019-04-30T19:33:00.678Z,102314.50
2019-04-30T19:35:30.127Z,102314.07
2019-04-30T19:38:00.051Z,102315.97
2019-04-30T19:40:30.526Z,102313.29
2019-04-30T19:43:00.187Z,102316.28
2019-04-30T19:45:29.813Z,102315.52
2019-04-30T19:47:59.489Z,102316.27
2019-04-30T19:50:29.128Z,102313.72
2019-04-30T19:52:58.973Z,102314.22
2019-04-30T19:55:28.648Z,102315.95
2019-04-30T19:57:59.869Z,102313.97
2019-04-30T20:00:31.050Z,102308.59
2019-04-30T20:03:00.748Z,102306.91
2019-04-30T20:05:30.141Z,102306.06
2019-04-30T20:08:02.708Z,102307.77
2019-04-30T20:10:32.040Z,102304.16
2019-04-30T20:13:01.306Z,102301.76
2019-04-30T20:15:30.543Z,102304.28
2019-04-30T20:18:01.049Z,102305.09
2019-04-30T20:20:30.484Z,102300.92
2019-04-30T20:23:01.319Z,102294.83
2019-04-30T20:25:30.620Z,102293.98
2019-04-30T20:27:59.981Z,102296.98
2019-04-30T20:30:29.325Z,102300.60
2019-04-30T20:32:59.398Z,102297.41
2019-04-30T20:35:28.864Z,102297.19
2019-04-30T20:38:16.098Z,102296.97
2019-04-30T20:40:57.719Z,102296.67
2019-04-30T20:43:18.658Z,102296.62
2019-04-30T20:45:48.075Z,102291.27
2019-04-30T20:48:18.805Z,102286.19
2019-04-30T20:50:48.109Z,102288.48
2019-04-30T20:53:17.401Z,102285.20
2019-04-30T20:55:46.833Z,102285.64
2019-04-30T20:58:16.208Z,102282.04
2019-04-30T21:00:45.586Z,102278.78
2019-04-30T21:03:14.925Z,102282.14
2019-04-30T21:05:44.300Z,102281.77
2019-04-30T21:08:13.541Z,102279.74
2019-04-30T21:10:42.883Z,102278.13
2019-04-30T21:13:12.423Z,102275.47
2019-04-30T21:15:41.759Z,102272.16
2019-04-30T21:18:11.400Z,102271.10
2019-04-30T21:20:41.230Z,102268.83
2019-04-30T21:23:10.844Z,102265.04
2019-04-30T21:25:40.946Z,102269.39
2019-04-30T21:28:10.350Z,102264.52
2019-04-30T21:30:40.273Z,102260.27
2019-04-30T21:33:14.105Z,102256.89
2019-04-30T21:35:45.961Z,102249.87
2019-04-30T21:38:16.020Z,102252.75
2019-04-30T21:40:45.292Z,102255.29
2019-04-30T21:43:14.609Z,102254.75
2019-04-30T21:45:43.914Z,102254.38
2019-04-30T21:48:13.833Z,102254.84
2019-04-30T21:50:43.132Z,102253.42
2019-04-30T21:53:12.354Z,102251.33
2019-04-30T21:55:41.928Z,102253.31
2019-04-30T21:58:11.263Z,102244.66
2019-04-30T22:00:42.205Z,102246.09
2019-04-30T22:03:11.562Z,102244.41
2019-04-30T22:05:40.867Z,102244.97
2019-04-30T22:08:10.410Z,102245.48
2019-04-30T22:10:39.633Z,102241.87
2019-04-30T22:13:09.083Z,102238.97
2019-04-30T22:15:38.563Z,102238.95
2019-04-30T22:18:07.816Z,102235.30
2019-04-30T22:20:38.869Z,102236.25
2019-04-30T22:23:08.192Z,102237.81
2019-04-30T22:25:39.281Z,102235.28
2019-04-30T22:28:08.535Z,102235.07
2019-04-30T22:30:37.888Z,102230.30
2019-04-30T22:33:08.958Z,102234.05
2019-04-30T22:35:45.769Z,102232.00
2019-04-30T22:38:18.945Z,102227.86
2019-04-30T22:40:48.846Z,102227.23
2019-04-30T22:43:18.210Z,102227.45
2019-04-30T22:45:49.910Z,102224.69
2019-04-30T22:48:19.149Z,102222.29
2019-04-30T22:50:48.384Z,102224.09
2019-04-30T22:53:17.608Z,102227.95
2019-04-30T22:55:46.823Z,102224.73
2019-04-30T22:58:16.166Z,102224.20
2019-04-30T23:00:46.960Z,102226.63
2019-04-30T23:03:17.794Z,102227.98
2019-04-30T23:05:47.030Z,102225.72
2019-04-30T23:08:16.231Z,102226.52
2019-04-30T23:10:45.584Z,102227.11
2019-04-30T23:13:14.843Z,102221.92
2019-04-30T23:15:44.243Z,102222.31
2019-04-30T23:18:13.577Z,102218.88
2019-04-30T23:20:42.844Z,102214.83
2019-04-30T23:23:12.184Z,102216.98
2019-04-30T23:25:41.418Z,102219.33
2019-04-30T23:28:10.933Z,102214.97
2019-04-30T23:30:40.206Z,102216.34
2019-04-30T23:33:09.528Z,102212.73
2019-04-30T23:35:38.928Z,102211.28
2019-04-30T23:38:08.202Z,102213.13
2019-04-30T23:40:52.096Z,102211.36
2019-04-30T23:43:21.406Z,102208.63
2019-04-30T23:45:50.717Z,102198.33
2019-04-30T23:48:20.115Z,102200.40
2019-04-30T23:50:49.333Z,102189.11
2019-04-30T23:53:18.570Z,102189.30
2019-04-30T23:55:47.878Z,102185.83
2019-04-30T23:58:17.141Z,102185.13
